sensor_id;sensor_type;location;lat;lon;timestamp;temperature;humidity
42147;DHT22;27815;43.410;11.852;2022-07-12T00:00:50;22.70;44.80
42147;DHT22;27815;43.410;11.852;2022-07-12T00:04:53;22.70;45.10
42147;DHT22;27815;43.410;11.852;2022-07-12T00:08:56;22.60;45.10
42147;DHT22;27815;43.410;11.852;2022-07-12T00:12:59;22.50;45.20
42147;DHT22;27815;43.410;11.852;2022-07-12T00:17:03;22.40;45.30
42147;DHT22;27815;43.410;11.852;2022-07-12T00:21:06;22.30;45.40
42147;DHT22;27815;43.410;11.852;2022-07-12T00:25:10;22.20;45.50
42147;DHT22;27815;43.410;11.852;2022-07-12T00:29:12;22.20;45.70
42147;DHT22;27815;43.410;11.852;2022-07-12T00:33:15;22.10;45.80
42147;DHT22;27815;43.410;11.852;2022-07-12T00:37:18;22.00;46.00
42147;DHT22;27815;43.410;11.852;2022-07-12T00:41:22;22.00;46.30
42147;DHT22;27815;43.410;11.852;2022-07-12T00:45:25;21.90;46.60
42147;DHT22;27815;43.410;11.852;2022-07-12T00:49:29;21.80;46.80
42147;DHT22;27815;43.410;11.852;2022-07-12T00:53:32;21.80;47.00
42147;DHT22;27815;43.410;11.852;2022-07-12T00:57:36;21.70;47.30
42147;DHT22;27815;43.410;11.852;2022-07-12T01:01:41;21.60;47.50
42147;DHT22;27815;43.410;11.852;2022-07-12T01:05:45;21.60;47.60
42147;DHT22;27815;43.410;11.852;2022-07-12T01:09:48;21.50;47.60
42147;DHT22;27815;43.410;11.852;2022-07-12T01:13:54;21.50;47.70
42147;DHT22;27815;43.410;11.852;2022-07-12T01:17:58;21.40;48.10
42147;DHT22;27815;43.410;11.852;2022-07-12T01:22:01;21.30;47.30
42147;DHT22;27815;43.410;11.852;2022-07-12T01:26:04;21.20;48.10
42147;DHT22;27815;43.410;11.852;2022-07-12T01:30:08;21.20;48.20
42147;DHT22;27815;43.410;11.852;2022-07-12T01:34:11;21.20;48.60
42147;DHT22;27815;43.410;11.852;2022-07-12T01:38:16;21.20;48.70
42147;DHT22;27815;43.410;11.852;2022-07-12T01:42:23;21.10;49.00
42147;DHT22;27815;43.410;11.852;2022-07-12T01:46:26;21.00;49.50
42147;DHT22;27815;43.410;11.852;2022-07-12T01:50:29;20.90;49.60
42147;DHT22;27815;43.410;11.852;2022-07-12T01:54:32;20.90;49.70
42147;DHT22;27815;43.410;11.852;2022-07-12T01:58:36;20.80;49.70
42147;DHT22;27815;43.410;11.852;2022-07-12T02:02:40;20.70;49.70
42147;DHT22;27815;43.410;11.852;2022-07-12T02:06:44;20.70;49.80
42147;DHT22;27815;43.410;11.852;2022-07-12T02:10:48;20.70;49.90
42147;DHT22;27815;43.410;11.852;2022-07-12T02:14:51;20.70;49.90
42147;DHT22;27815;43.410;11.852;2022-07-12T02:18:55;20.50;50.10
42147;DHT22;27815;43.410;11.852;2022-07-12T02:22:58;20.50;50.20
42147;DHT22;27815;43.410;11.852;2022-07-12T02:27:00;20.50;50.30
42147;DHT22;27815;43.410;11.852;2022-07-12T02:31:04;20.40;50.50
42147;DHT22;27815;43.410;11.852;2022-07-12T02:35:08;20.40;50.60
42147;DHT22;27815;43.410;11.852;2022-07-12T02:39:11;20.50;50.60
42147;DHT22;27815;43.410;11.852;2022-07-12T02:43:13;20.50;51.00
42147;DHT22;27815;43.410;11.852;2022-07-12T02:47:16;20.40;51.30
42147;DHT22;27815;43.410;11.852;2022-07-12T02:51:19;20.30;51.50
42147;DHT22;27815;43.410;11.852;2022-07-12T02:55:22;20.30;51.70
42147;DHT22;27815;43.410;11.852;2022-07-12T02:59:25;20.30;51.90
42147;DHT22;27815;43.410;11.852;2022-07-12T03:03:28;20.30;51.90
42147;DHT22;27815;43.410;11.852;2022-07-12T03:07:31;20.20;52.10
42147;DHT22;27815;43.410;11.852;2022-07-12T03:11:34;20.10;52.20
42147;DHT22;27815;43.410;11.852;2022-07-12T03:15:36;20.10;52.40
42147;DHT22;27815;43.410;11.852;2022-07-12T03:19:40;20.10;52.60
42147;DHT22;27815;43.410;11.852;2022-07-12T03:23:42;20.00;52.80
42147;DHT22;27815;43.410;11.852;2022-07-12T03:27:47;20.00;52.90
42147;DHT22;27815;43.410;11.852;2022-07-12T03:31:50;20.00;53.00
42147;DHT22;27815;43.410;11.852;2022-07-12T03:35:52;20.00;53.20
42147;DHT22;27815;43.410;11.852;2022-07-12T03:39:55;19.90;53.40
42147;DHT22;27815;43.410;11.852;2022-07-12T03:43:59;19.80;53.70
42147;DHT22;27815;43.410;11.852;2022-07-12T03:48:02;19.70;54.00
42147;DHT22;27815;43.410;11.852;2022-07-12T03:52:05;19.60;54.20
42147;DHT22;27815;43.410;11.852;2022-07-12T03:56:09;19.60;54.40
42147;DHT22;27815;43.410;11.852;2022-07-12T04:00:32;19.60;54.60
42147;DHT22;27815;43.410;11.852;2022-07-12T04:04:36;19.50;54.70
42147;DHT22;27815;43.410;11.852;2022-07-12T04:08:39;19.60;54.90
42147;DHT22;27815;43.410;11.852;2022-07-12T04:12:41;19.60;55.00
42147;DHT22;27815;43.410;11.852;2022-07-12T04:16:45;19.60;55.00
42147;DHT22;27815;43.410;11.852;2022-07-12T04:20:47;19.60;55.30
42147;DHT22;27815;43.410;11.852;2022-07-12T04:24:51;19.60;55.60
42147;DHT22;27815;43.410;11.852;2022-07-12T04:28:54;19.70;55.60
42147;DHT22;27815;43.410;11.852;2022-07-12T04:33:01;19.80;55.90
42147;DHT22;27815;43.410;11.852;2022-07-12T04:37:04;19.90;56.00
42147;DHT22;27815;43.410;11.852;2022-07-12T04:41:07;19.90;56.10
42147;DHT22;27815;43.410;11.852;2022-07-12T04:45:09;20.00;56.40
42147;DHT22;27815;43.410;11.852;2022-07-12T04:49:12;20.10;56.00
42147;DHT22;27815;43.410;11.852;2022-07-12T04:53:16;20.10;56.10
42147;DHT22;27815;43.410;11.852;2022-07-12T04:57:18;20.20;56.40
42147;DHT22;27815;43.410;11.852;2022-07-12T05:01:21;20.30;56.30
42147;DHT22;27815;43.410;11.852;2022-07-12T05:05:24;20.50;56.10
42147;DHT22;27815;43.410;11.852;2022-07-12T05:09:27;20.60;55.80
42147;DHT22;27815;43.410;11.852;2022-07-12T05:13:30;20.70;55.70
42147;DHT22;27815;43.410;11.852;2022-07-12T05:17:33;21.00;55.70
42147;DHT22;27815;43.410;11.852;2022-07-12T05:21:36;21.10;55.60
42147;DHT22;27815;43.410;11.852;2022-07-12T05:25:39;21.20;55.70
42147;DHT22;27815;43.410;11.852;2022-07-12T05:29:42;21.40;55.80
42147;DHT22;27815;43.410;11.852;2022-07-12T05:33:45;21.50;56.00
42147;DHT22;27815;43.410;11.852;2022-07-12T05:37:48;21.40;56.20
42147;DHT22;27815;43.410;11.852;2022-07-12T05:41:51;21.50;55.90
42147;DHT22;27815;43.410;11.852;2022-07-12T05:45:54;21.60;55.70
42147;DHT22;27815;43.410;11.852;2022-07-12T05:49:58;21.70;55.60
42147;DHT22;27815;43.410;11.852;2022-07-12T05:54:01;21.90;55.50
42147;DHT22;27815;43.410;11.852;2022-07-12T05:58:03;22.00;55.30
42147;DHT22;27815;43.410;11.852;2022-07-12T06:02:07;22.00;55.40
42147;DHT22;27815;43.410;11.852;2022-07-12T06:06:10;22.00;55.40
42147;DHT22;27815;43.410;11.852;2022-07-12T06:10:13;22.00;55.40
42147;DHT22;27815;43.410;11.852;2022-07-12T06:14:16;22.10;55.20
42147;DHT22;27815;43.410;11.852;2022-07-12T06:18:19;22.10;55.30
42147;DHT22;27815;43.410;11.852;2022-07-12T06:22:23;22.20;55.10
42147;DHT22;27815;43.410;11.852;2022-07-12T06:26:26;22.10;55.40
42147;DHT22;27815;43.410;11.852;2022-07-12T06:30:30;22.00;56.00
42147;DHT22;27815;43.410;11.852;2022-07-12T06:34:36;22.00;56.30
42147;DHT22;27815;43.410;11.852;2022-07-12T06:38:40;22.00;56.70
42147;DHT22;27815;43.410;11.852;2022-07-12T06:42:51;22.00;56.60
42147;DHT22;27815;43.410;11.852;2022-07-12T06:46:54;22.00;56.90
42147;DHT22;27815;43.410;11.852;2022-07-12T06:50:57;22.00;57.00
42147;DHT22;27815;43.410;11.852;2022-07-12T06:55:00;22.00;57.00
42147;DHT22;27815;43.410;11.852;2022-07-12T06:59:03;22.20;56.90
42147;DHT22;27815;43.410;11.852;2022-07-12T07:03:06;22.40;56.80
42147;DHT22;27815;43.410;11.852;2022-07-12T07:07:09;22.90;56.20
42147;DHT22;27815;43.410;11.852;2022-07-12T07:11:11;23.20;55.60
42147;DHT22;27815;43.410;11.852;2022-07-12T07:15:14;23.40;55.30
42147;DHT22;27815;43.410;11.852;2022-07-12T07:19:18;23.50;55.00
42147;DHT22;27815;43.410;11.852;2022-07-12T07:23:24;23.50;55.20
42147;DHT22;27815;43.410;11.852;2022-07-12T07:27:27;23.60;55.00
42147;DHT22;27815;43.410;11.852;2022-07-12T07:31:34;23.80;54.80
42147;DHT22;27815;43.410;11.852;2022-07-12T07:35:37;23.90;54.80
42147;DHT22;27815;43.410;11.852;2022-07-12T07:39:40;24.10;54.70
42147;DHT22;27815;43.410;11.852;2022-07-12T07:43:43;24.50;53.80
42147;DHT22;27815;43.410;11.852;2022-07-12T07:47:47;25.00;53.20
42147;DHT22;27815;43.410;11.852;2022-07-12T07:52:11;25.10;52.50
42147;DHT22;27815;43.410;11.852;2022-07-12T07:56:14;25.00;52.60
42147;DHT22;27815;43.410;11.852;2022-07-12T08:00:16;25.00;52.70
42147;DHT22;27815;43.410;11.852;2022-07-12T08:04:21;25.00;52.80
42147;DHT22;27815;43.410;11.852;2022-07-12T08:08:24;25.00;52.80
42147;DHT22;27815;43.410;11.852;2022-07-12T08:12:47;25.00;52.80
42147;DHT22;27815;43.410;11.852;2022-07-12T08:16:50;25.00;52.80
42147;DHT22;27815;43.410;11.852;2022-07-12T08:20:53;25.00;52.90
42147;DHT22;27815;43.410;11.852;2022-07-12T08:24:56;24.90;53.30
42147;DHT22;27815;43.410;11.852;2022-07-12T08:28:59;24.90;53.20
42147;DHT22;27815;43.410;11.852;2022-07-12T08:33:01;25.00;53.10
42147;DHT22;27815;43.410;11.852;2022-07-12T08:37:04;25.20;52.80
42147;DHT22;27815;43.410;11.852;2022-07-12T08:41:07;25.30;52.70
42147;DHT22;27815;43.410;11.852;2022-07-12T08:45:11;25.40;52.50
42147;DHT22;27815;43.410;11.852;2022-07-12T08:49:14;25.20;52.80
42147;DHT22;27815;43.410;11.852;2022-07-12T08:53:17;25.30;52.80
42147;DHT22;27815;43.410;11.852;2022-07-12T08:57:30;25.40;52.60
42147;DHT22;27815;43.410;11.852;2022-07-12T09:02:00;25.60;52.40
42147;DHT22;27815;43.410;11.852;2022-07-12T09:06:05;25.90;52.00
42147;DHT22;27815;43.410;11.852;2022-07-12T09:10:09;26.00;51.90
42147;DHT22;27815;43.410;11.852;2022-07-12T09:14:18;26.10;51.60
42147;DHT22;27815;43.410;11.852;2022-07-12T09:18:22;26.20;51.70
42147;DHT22;27815;43.410;11.852;2022-07-12T09:22:31;26.50;51.40
42147;DHT22;27815;43.410;11.852;2022-07-12T09:26:33;26.60;51.30
42147;DHT22;27815;43.410;11.852;2022-07-12T09:30:46;26.70;51.40
42147;DHT22;27815;43.410;11.852;2022-07-12T09:34:56;26.80;51.30
42147;DHT22;27815;43.410;11.852;2022-07-12T09:39:17;27.10;51.00
42147;DHT22;27815;43.410;11.852;2022-07-12T09:43:22;27.30;50.60
42147;DHT22;27815;43.410;11.852;2022-07-12T09:47:25;27.50;49.90
42147;DHT22;27815;43.410;11.852;2022-07-12T09:51:29;27.60;49.90
42147;DHT22;27815;43.410;11.852;2022-07-12T09:55:37;27.80;48.20
42147;DHT22;27815;43.410;11.852;2022-07-12T09:59:42;28.10;46.30
42147;DHT22;27815;43.410;11.852;2022-07-12T10:03:45;28.40;46.10
42147;DHT22;27815;43.410;11.852;2022-07-12T10:07:49;28.50;45.40
42147;DHT22;27815;43.410;11.852;2022-07-12T10:11:52;28.60;45.20
42147;DHT22;27815;43.410;11.852;2022-07-12T10:16:03;28.80;44.90
42147;DHT22;27815;43.410;11.852;2022-07-12T10:20:16;29.00;44.30
42147;DHT22;27815;43.410;11.852;2022-07-12T10:29:06;29.20;43.40
42147;DHT22;27815;43.410;11.852;2022-07-12T10:33:23;29.50;42.20
42147;DHT22;27815;43.410;11.852;2022-07-12T10:37:27;29.60;41.80
42147;DHT22;27815;43.410;11.852;2022-07-12T10:41:30;29.70;41.90
42147;DHT22;27815;43.410;11.852;2022-07-12T10:45:35;29.70;41.80
42147;DHT22;27815;43.410;11.852;2022-07-12T10:49:47;29.80;39.80
42147;DHT22;27815;43.410;11.852;2022-07-12T10:53:50;30.00;39.40
42147;DHT22;27815;43.410;11.852;2022-07-12T10:57:54;30.10;40.00
42147;DHT22;27815;43.410;11.852;2022-07-12T11:01:57;30.10;39.70
42147;DHT22;27815;43.410;11.852;2022-07-12T11:06:13;30.00;39.30
42147;DHT22;27815;43.410;11.852;2022-07-12T11:10:16;29.80;38.60
42147;DHT22;27815;43.410;11.852;2022-07-12T11:14:25;29.70;39.00
42147;DHT22;27815;43.410;11.852;2022-07-12T11:18:29;29.70;38.60
42147;DHT22;27815;43.410;11.852;2022-07-12T11:22:34;30.00;38.50
42147;DHT22;27815;43.410;11.852;2022-07-12T11:26:36;30.20;38.60
42147;DHT22;27815;43.410;11.852;2022-07-12T11:30:48;30.40;37.80
42147;DHT22;27815;43.410;11.852;2022-07-12T11:34:53;30.50;38.00
42147;DHT22;27815;43.410;11.852;2022-07-12T11:38:59;30.70;38.00
42147;DHT22;27815;43.410;11.852;2022-07-12T11:43:05;30.80;37.80
42147;DHT22;27815;43.410;11.852;2022-07-12T11:47:08;30.80;37.90
42147;DHT22;27815;43.410;11.852;2022-07-12T11:51:12;30.80;37.80
42147;DHT22;27815;43.410;11.852;2022-07-12T11:55:15;30.80;37.90
42147;DHT22;27815;43.410;11.852;2022-07-12T11:59:25;30.80;37.80
42147;DHT22;27815;43.410;11.852;2022-07-12T12:03:27;30.80;37.40
42147;DHT22;27815;43.410;11.852;2022-07-12T12:07:31;30.60;37.10
42147;DHT22;27815;43.410;11.852;2022-07-12T12:11:34;30.60;36.70
42147;DHT22;27815;43.410;11.852;2022-07-12T12:15:37;30.60;36.60
42147;DHT22;27815;43.410;11.852;2022-07-12T12:19:43;30.60;36.50
42147;DHT22;27815;43.410;11.852;2022-07-12T12:23:46;30.80;36.20
42147;DHT22;27815;43.410;11.852;2022-07-12T12:27:54;31.00;36.40
42147;DHT22;27815;43.410;11.852;2022-07-12T12:32:18;31.20;35.70
42147;DHT22;27815;43.410;11.852;2022-07-12T12:36:23;31.20;34.80
42147;DHT22;27815;43.410;11.852;2022-07-12T12:40:31;31.40;34.70
42147;DHT22;27815;43.410;11.852;2022-07-12T12:44:34;31.70;34.50
42147;DHT22;27815;43.410;11.852;2022-07-12T12:48:46;32.10;34.30
42147;DHT22;27815;43.410;11.852;2022-07-12T12:52:49;32.20;33.30
42147;DHT22;27815;43.410;11.852;2022-07-12T12:56:53;32.00;33.10
42147;DHT22;27815;43.410;11.852;2022-07-12T13:00:55;31.90;33.20
42147;DHT22;27815;43.410;11.852;2022-07-12T13:05:00;31.60;33.00
42147;DHT22;27815;43.410;11.852;2022-07-12T13:09:03;31.60;33.20
42147;DHT22;27815;43.410;11.852;2022-07-12T13:13:07;31.70;33.00
42147;DHT22;27815;43.410;11.852;2022-07-12T13:17:12;31.70;32.90
42147;DHT22;27815;43.410;11.852;2022-07-12T13:21:15;31.60;33.20
42147;DHT22;27815;43.410;11.852;2022-07-12T13:25:20;31.50;33.20
42147;DHT22;27815;43.410;11.852;2022-07-12T13:29:22;31.60;33.30
42147;DHT22;27815;43.410;11.852;2022-07-12T13:33:26;31.50;33.30
42147;DHT22;27815;43.410;11.852;2022-07-12T13:37:29;31.50;32.70
42147;DHT22;27815;43.410;11.852;2022-07-12T13:41:32;31.50;32.80
42147;DHT22;27815;43.410;11.852;2022-07-12T13:45:35;31.60;32.50
42147;DHT22;27815;43.410;11.852;2022-07-12T13:49:39;31.70;32.60
42147;DHT22;27815;43.410;11.852;2022-07-12T13:53:42;31.90;32.50
42147;DHT22;27815;43.410;11.852;2022-07-12T13:57:45;32.00;32.20
42147;DHT22;27815;43.410;11.852;2022-07-12T14:01:49;32.20;32.10
42147;DHT22;27815;43.410;11.852;2022-07-12T14:05:52;32.20;32.20
42147;DHT22;27815;43.410;11.852;2022-07-12T14:09:57;32.30;32.10
42147;DHT22;27815;43.410;11.852;2022-07-12T14:14:00;32.30;32.20
42147;DHT22;27815;43.410;11.852;2022-07-12T14:18:05;32.30;31.80
42147;DHT22;27815;43.410;11.852;2022-07-12T14:22:08;32.20;32.10
42147;DHT22;27815;43.410;11.852;2022-07-12T14:26:11;32.20;32.20
42147;DHT22;27815;43.410;11.852;2022-07-12T14:30:14;31.90;32.50
42147;DHT22;27815;43.410;11.852;2022-07-12T14:34:17;31.80;32.50
42147;DHT22;27815;43.410;11.852;2022-07-12T14:38:21;31.60;32.50
42147;DHT22;27815;43.410;11.852;2022-07-12T14:42:24;31.80;32.40
42147;DHT22;27815;43.410;11.852;2022-07-12T14:46:27;31.90;32.50
42147;DHT22;27815;43.410;11.852;2022-07-12T14:50:30;31.90;32.30
42147;DHT22;27815;43.410;11.852;2022-07-12T14:54:33;32.00;32.20
42147;DHT22;27815;43.410;11.852;2022-07-12T14:58:36;32.10;32.20
42147;DHT22;27815;43.410;11.852;2022-07-12T15:02:39;32.30;31.60
42147;DHT22;27815;43.410;11.852;2022-07-12T15:06:49;32.20;31.70
42147;DHT22;27815;43.410;11.852;2022-07-12T15:10:52;31.90;32.10
42147;DHT22;27815;43.410;11.852;2022-07-12T15:14:54;31.70;32.10
42147;DHT22;27815;43.410;11.852;2022-07-12T15:18:59;31.60;32.00
42147;DHT22;27815;43.410;11.852;2022-07-12T15:23:02;31.50;32.20
42147;DHT22;27815;43.410;11.852;2022-07-12T15:27:05;31.50;32.00
42147;DHT22;27815;43.410;11.852;2022-07-12T15:31:11;31.30;32.50
42147;DHT22;27815;43.410;11.852;2022-07-12T15:35:14;31.10;32.50
42147;DHT22;27815;43.410;11.852;2022-07-12T15:39:17;31.10;32.80
42147;DHT22;27815;43.410;11.852;2022-07-12T15:43:20;31.20;32.90
42147;DHT22;27815;43.410;11.852;2022-07-12T15:47:23;31.40;32.50
42147;DHT22;27815;43.410;11.852;2022-07-12T15:51:26;31.50;32.30
42147;DHT22;27815;43.410;11.852;2022-07-12T15:55:47;31.50;32.00
42147;DHT22;27815;43.410;11.852;2022-07-12T15:59:50;31.30;31.30
42147;DHT22;27815;43.410;11.852;2022-07-12T16:03:53;31.30;31.70
42147;DHT22;27815;43.410;11.852;2022-07-12T16:08:06;31.50;31.60
42147;DHT22;27815;43.410;11.852;2022-07-12T16:12:10;31.50;31.60
42147;DHT22;27815;43.410;11.852;2022-07-12T16:16:13;31.50;31.70
42147;DHT22;27815;43.410;11.852;2022-07-12T16:20:16;31.50;31.80
42147;DHT22;27815;43.410;11.852;2022-07-12T16:24:20;31.50;31.50
42147;DHT22;27815;43.410;11.852;2022-07-12T16:28:23;31.90;31.10
42147;DHT22;27815;43.410;11.852;2022-07-12T16:32:27;32.00;30.70
42147;DHT22;27815;43.410;11.852;2022-07-12T16:36:30;31.90;30.90
42147;DHT22;27815;43.410;11.852;2022-07-12T16:40:33;31.90;31.00
42147;DHT22;27815;43.410;11.852;2022-07-12T16:44:37;32.10;30.80
42147;DHT22;27815;43.410;11.852;2022-07-12T16:48:39;32.50;30.90
42147;DHT22;27815;43.410;11.852;2022-07-12T16:52:42;34.00;29.30
42147;DHT22;27815;43.410;11.852;2022-07-12T16:56:46;34.00;29.20
42147;DHT22;27815;43.410;11.852;2022-07-12T17:00:58;33.40;29.80
42147;DHT22;27815;43.410;11.852;2022-07-12T17:05:01;33.20;30.10
42147;DHT22;27815;43.410;11.852;2022-07-12T17:09:04;33.70;29.70
42147;DHT22;27815;43.410;11.852;2022-07-12T17:13:08;34.70;28.60
42147;DHT22;27815;43.410;11.852;2022-07-12T17:17:11;35.40;27.90
42147;DHT22;27815;43.410;11.852;2022-07-12T17:21:18;34.60;28.80
42147;DHT22;27815;43.410;11.852;2022-07-12T17:25:22;33.80;29.40
42147;DHT22;27815;43.410;11.852;2022-07-12T17:29:25;33.00;29.90
42147;DHT22;27815;43.410;11.852;2022-07-12T17:33:29;32.60;30.30
42147;DHT22;27815;43.410;11.852;2022-07-12T17:37:32;32.40;30.90
42147;DHT22;27815;43.410;11.852;2022-07-12T17:41:35;32.30;31.50
42147;DHT22;27815;43.410;11.852;2022-07-12T17:45:39;32.10;31.70
42147;DHT22;27815;43.410;11.852;2022-07-12T17:49:42;32.00;32.00
42147;DHT22;27815;43.410;11.852;2022-07-12T17:53:45;31.80;32.30
42147;DHT22;27815;43.410;11.852;2022-07-12T17:57:48;31.50;32.30
42147;DHT22;27815;43.410;11.852;2022-07-12T18:02:09;31.30;32.70
42147;DHT22;27815;43.410;11.852;2022-07-12T18:06:13;31.20;32.90
42147;DHT22;27815;43.410;11.852;2022-07-12T18:10:17;31.10;33.10
42147;DHT22;27815;43.410;11.852;2022-07-12T18:14:19;31.00;33.50
42147;DHT22;27815;43.410;11.852;2022-07-12T18:18:41;31.00;33.50
42147;DHT22;27815;43.410;11.852;2022-07-12T18:22:44;30.80;33.80
42147;DHT22;27815;43.410;11.852;2022-07-12T18:26:47;30.60;34.30
42147;DHT22;27815;43.410;11.852;2022-07-12T18:30:50;30.50;34.50
42147;DHT22;27815;43.410;11.852;2022-07-12T18:34:57;30.20;35.00
42147;DHT22;27815;43.410;11.852;2022-07-12T18:39:00;30.00;35.50
42147;DHT22;27815;43.410;11.852;2022-07-12T18:43:03;29.80;36.00
42147;DHT22;27815;43.410;11.852;2022-07-12T18:47:06;29.50;36.40
42147;DHT22;27815;43.410;11.852;2022-07-12T18:51:09;29.20;36.40
42147;DHT22;27815;43.410;11.852;2022-07-12T18:55:12;29.00;36.60
42147;DHT22;27815;43.410;11.852;2022-07-12T18:59:15;28.80;36.80
42147;DHT22;27815;43.410;11.852;2022-07-12T19:03:18;28.50;37.10
42147;DHT22;27815;43.410;11.852;2022-07-12T19:07:25;28.40;37.30
42147;DHT22;27815;43.410;11.852;2022-07-12T19:11:28;28.30;37.40
42147;DHT22;27815;43.410;11.852;2022-07-12T19:15:31;28.20;37.70
42147;DHT22;27815;43.410;11.852;2022-07-12T19:19:34;28.10;38.00
42147;DHT22;27815;43.410;11.852;2022-07-12T19:23:38;27.90;38.20
42147;DHT22;27815;43.410;11.852;2022-07-12T19:27:41;27.70;38.40
42147;DHT22;27815;43.410;11.852;2022-07-12T19:31:44;27.50;39.00
42147;DHT22;27815;43.410;11.852;2022-07-12T19:35:47;27.40;39.30
42147;DHT22;27815;43.410;11.852;2022-07-12T19:39:51;27.30;39.70
42147;DHT22;27815;43.410;11.852;2022-07-12T19:43:55;27.00;39.90
42147;DHT22;27815;43.410;11.852;2022-07-12T19:47:58;26.90;40.60
42147;DHT22;27815;43.410;11.852;2022-07-12T19:52:01;26.60;41.30
42147;DHT22;27815;43.410;11.852;2022-07-12T19:56:05;26.50;42.00
42147;DHT22;27815;43.410;11.852;2022-07-12T20:00:09;26.30;42.90
42147;DHT22;27815;43.410;11.852;2022-07-12T20:04:14;26.20;43.50
42147;DHT22;27815;43.410;11.852;2022-07-12T20:08:18;26.00;44.50
42147;DHT22;27815;43.410;11.852;2022-07-12T20:12:20;26.10;45.20
42147;DHT22;27815;43.410;11.852;2022-07-12T20:16:24;26.10;45.60
42147;DHT22;27815;43.410;11.852;2022-07-12T20:20:28;26.10;45.50
42147;DHT22;27815;43.410;11.852;2022-07-12T20:24:32;26.10;45.30
42147;DHT22;27815;43.410;11.852;2022-07-12T20:28:35;26.00;45.20
42147;DHT22;27815;43.410;11.852;2022-07-12T20:32:38;25.90;45.90
42147;DHT22;27815;43.410;11.852;2022-07-12T20:37:04;25.80;46.80
42147;DHT22;27815;43.410;11.852;2022-07-12T20:41:07;25.80;48.50
42147;DHT22;27815;43.410;11.852;2022-07-12T20:45:18;25.80;49.10
42147;DHT22;27815;43.410;11.852;2022-07-12T20:49:24;25.90;49.00
42147;DHT22;27815;43.410;11.852;2022-07-12T20:53:27;26.00;48.80
42147;DHT22;27815;43.410;11.852;2022-07-12T20:57:29;26.00;48.60
42147;DHT22;27815;43.410;11.852;2022-07-12T21:01:33;26.00;48.30
42147;DHT22;27815;43.410;11.852;2022-07-12T21:05:36;26.00;48.20
42147;DHT22;27815;43.410;11.852;2022-07-12T21:09:39;26.00;48.00
42147;DHT22;27815;43.410;11.852;2022-07-12T21:13:43;25.90;47.80
42147;DHT22;27815;43.410;11.852;2022-07-12T21:17:47;25.80;47.90
42147;DHT22;27815;43.410;11.852;2022-07-12T21:21:50;25.70;47.60
42147;DHT22;27815;43.410;11.852;2022-07-12T21:25:53;25.70;47.60
42147;DHT22;27815;43.410;11.852;2022-07-12T21:29:56;25.90;47.50
42147;DHT22;27815;43.410;11.852;2022-07-12T21:34:00;26.00;47.40
42147;DHT22;27815;43.410;11.852;2022-07-12T21:38:04;26.10;47.20
42147;DHT22;27815;43.410;11.852;2022-07-12T21:42:06;26.20;47.30
42147;DHT22;27815;43.410;11.852;2022-07-12T21:46:10;25.90;48.10
42147;DHT22;27815;43.410;11.852;2022-07-12T21:50:14;25.70;48.50
42147;DHT22;27815;43.410;11.852;2022-07-12T21:54:17;25.60;48.60
42147;DHT22;27815;43.410;11.852;2022-07-12T21:58:21;25.50;48.90
42147;DHT22;27815;43.410;11.852;2022-07-12T22:02:24;25.30;49.30
42147;DHT22;27815;43.410;11.852;2022-07-12T22:06:27;25.20;49.40
42147;DHT22;27815;43.410;11.852;2022-07-12T22:10:30;25.10;49.70
42147;DHT22;27815;43.410;11.852;2022-07-12T22:14:32;25.00;49.90
42147;DHT22;27815;43.410;11.852;2022-07-12T22:18:35;24.80;50.00
42147;DHT22;27815;43.410;11.852;2022-07-12T22:22:38;24.70;50.40
42147;DHT22;27815;43.410;11.852;2022-07-12T22:26:42;24.50;51.70
42147;DHT22;27815;43.410;11.852;2022-07-12T22:30:45;24.50;51.90
42147;DHT22;27815;43.410;11.852;2022-07-12T22:34:48;24.50;52.10
42147;DHT22;27815;43.410;11.852;2022-07-12T22:38:51;24.40;52.40
42147;DHT22;27815;43.410;11.852;2022-07-12T22:42:54;24.40;52.60
42147;DHT22;27815;43.410;11.852;2022-07-12T22:46:59;24.30;53.40
42147;DHT22;27815;43.410;11.852;2022-07-12T22:51:02;24.30;53.30
42147;DHT22;27815;43.410;11.852;2022-07-12T22:55:24;24.40;53.00
42147;DHT22;27815;43.410;11.852;2022-07-12T22:59:27;24.40;53.00
42147;DHT22;27815;43.410;11.852;2022-07-12T23:03:31;24.30;53.30
42147;DHT22;27815;43.410;11.852;2022-07-12T23:07:34;24.40;53.70
42147;DHT22;27815;43.410;11.852;2022-07-12T23:11:37;24.50;53.90
42147;DHT22;27815;43.410;11.852;2022-07-12T23:15:40;24.80;54.50
42147;DHT22;27815;43.410;11.852;2022-07-12T23:19:43;25.00;54.20
42147;DHT22;27815;43.410;11.852;2022-07-12T23:23:46;25.00;54.00
42147;DHT22;27815;43.410;11.852;2022-07-12T23:27:49;25.10;53.40
42147;DHT22;27815;43.410;11.852;2022-07-12T23:31:52;25.30;52.40
42147;DHT22;27815;43.410;11.852;2022-07-12T23:35:55;25.40;51.40
42147;DHT22;27815;43.410;11.852;2022-07-12T23:39:57;25.50;50.80
42147;DHT22;27815;43.410;11.852;2022-07-12T23:44:01;25.50;50.30
42147;DHT22;27815;43.410;11.852;2022-07-12T23:48:04;25.50;50.10
42147;DHT22;27815;43.410;11.852;2022-07-12T23:52:06;25.60;49.70
42147;DHT22;27815;43.410;11.852;2022-07-12T23:56:09;25.60;49.50
